createdAt,value
2023-04-08T00:04:35.520Z,6.63
2023-04-08T00:09:40.176Z,6.10
2023-04-08T00:14:43.572Z,6.87
2023-04-08T00:19:46.835Z,6.40
2023-04-08T00:24:51.418Z,6.97
2023-04-08T00:29:54.678Z,6.40
2023-04-08T00:34:57.919Z,6.23
2023-04-08T00:40:02.624Z,6.20
2023-04-08T00:45:06.602Z,5.77
2023-04-08T00:50:11.490Z,5.87
2023-04-08T00:55:16.116Z,5.97
2023-04-08T01:00:19.416Z,5.77
2023-04-08T01:05:31.728Z,5.30
2023-04-08T01:10:41.631Z,5.33
2023-04-08T01:15:46.290Z,4.23
2023-04-08T01:20:51.668Z,4.00
2023-04-08T01:25:58.356Z,4.20
2023-04-08T01:31:03.773Z,3.67
2023-04-08T01:36:07.808Z,4.03
2023-04-08T01:41:13.173Z,3.50
2023-04-08T01:46:17.306Z,3.70
2023-04-08T01:51:21.155Z,4.53
2023-04-08T01:56:30.765Z,4.20
2023-04-08T02:01:36.621Z,4.03
2023-04-08T02:06:40.081Z,4.07
2023-04-08T02:11:44.839Z,3.87
2023-04-08T02:16:54.408Z,3.57
2023-04-08T02:22:03.459Z,3.07
2023-04-08T02:27:11.578Z,2.90
2023-04-08T02:32:17.499Z,2.60
2023-04-08T02:37:20.949Z,2.73
2023-04-08T02:42:25.935Z,2.87
2023-04-08T02:47:29.240Z,2.67
2023-04-08T02:52:32.516Z,3.20
2023-04-08T02:57:38.064Z,3.30
2023-04-08T03:02:41.530Z,3.40
2023-04-08T03:07:45.075Z,3.33
2023-04-08T03:12:49.835Z,4.30
2023-04-08T03:17:53.266Z,4.80
2023-04-08T03:22:56.766Z,5.77
2023-04-08T03:28:01.416Z,6.53
2023-04-08T03:33:08.128Z,6.63
2023-04-08T03:38:11.494Z,6.17
2023-04-08T03:43:16.725Z,5.60
2023-04-08T03:48:20.074Z,5.87
2023-04-08T03:53:23.368Z,6.60
2023-04-08T03:58:28.051Z,5.07
2023-04-08T04:03:31.949Z,5.90
2023-04-08T04:08:35.414Z,5.80
2023-04-08T04:13:40.005Z,5.57
2023-04-08T04:18:43.353Z,5.20
2023-04-08T04:23:46.766Z,5.37
2023-04-08T04:28:51.750Z,5.57
2023-04-08T04:33:55.587Z,5.63
2023-04-08T04:38:58.859Z,6.30
2023-04-08T04:44:03.556Z,5.83
2023-04-08T04:49:06.834Z,5.53
2023-04-08T04:54:10.126Z,4.40
2023-04-08T04:59:14.824Z,4.43
2023-04-08T05:04:18.138Z,4.73
2023-04-08T05:09:21.415Z,4.47
2023-04-08T05:14:26.174Z,5.33
2023-04-08T05:19:29.437Z,5.23
2023-04-08T05:24:32.697Z,5.30
2023-04-08T05:29:37.396Z,5.30
2023-04-08T05:34:40.750Z,5.20
2023-04-08T05:39:44.020Z,5.77
2023-04-08T05:44:48.650Z,6.07
2023-04-08T05:49:51.862Z,5.63
2023-04-08T05:54:55.204Z,5.40
2023-04-08T05:59:59.876Z,5.70
2023-04-08T06:05:03.878Z,5.20
2023-04-08T06:10:07.743Z,5.87
2023-04-08T06:15:12.548Z,6.20
2023-04-08T06:20:15.846Z,6.23
2023-04-08T06:25:19.403Z,7.00
2023-04-08T06:30:24.278Z,7.37
2023-04-08T06:35:28.411Z,8.23
2023-04-08T06:40:31.927Z,8.40
2023-04-08T06:45:36.741Z,8.77
2023-04-08T06:50:40.026Z,8.10
2023-04-08T06:55:43.355Z,7.83
2023-04-08T07:00:48.554Z,8.30
2023-04-08T07:05:51.954Z,8.43
2023-04-08T07:10:55.225Z,8.07
2023-04-08T07:15:59.839Z,7.90
2023-04-08T07:21:03.055Z,7.60
2023-04-08T07:26:06.336Z,7.57
2023-04-08T07:31:16.178Z,7.70
2023-04-08T07:36:19.515Z,8.73
2023-04-08T07:41:22.965Z,9.73
2023-04-08T07:46:27.567Z,7.17
2023-04-08T07:51:30.872Z,7.10
2023-04-08T07:56:34.088Z,7.00
2023-04-08T08:01:38.933Z,4.87
2023-04-08T08:06:42.200Z,4.57
2023-04-08T08:11:45.438Z,4.60
2023-04-08T08:16:50.022Z,4.93
2023-04-08T08:21:53.434Z,4.50
2023-04-08T08:26:56.781Z,4.10
2023-04-08T08:32:01.451Z,4.23
2023-04-08T08:37:04.634Z,3.80
2023-04-08T08:42:07.861Z,4.33
2023-04-08T08:47:12.481Z,4.23
2023-04-08T08:52:17.577Z,3.90
2023-04-08T08:57:21.264Z,4.50
2023-04-08T09:02:30.566Z,3.97
2023-04-08T09:07:37.738Z,3.60
2023-04-08T09:12:55.951Z,3.93
2023-04-08T09:18:00.611Z,3.90
2023-04-08T09:23:04.336Z,3.90
2023-04-08T09:28:21.201Z,2.90
2023-04-08T09:33:37.010Z,2.73
2023-04-08T09:38:40.929Z,3.63
2023-04-08T09:43:49.606Z,3.30
2023-04-08T09:49:02.730Z,3.50
2023-04-08T09:54:13.731Z,2.83
2023-04-08T09:59:21.863Z,2.60
2023-04-08T10:04:29.416Z,2.90
2023-04-08T10:09:34.126Z,2.80
2023-04-08T10:14:37.403Z,3.20
2023-04-08T10:19:42.275Z,3.77
2023-04-08T10:25:25.561Z,3.10
2023-04-08T10:30:43.483Z,4.20
2023-04-08T10:35:52.576Z,3.53
2023-04-08T10:40:56.125Z,3.97
2023-04-08T10:46:00.739Z,3.93
2023-04-08T10:51:05.859Z,4.07
2023-04-08T10:56:13.185Z,3.57
2023-04-08T11:01:21.213Z,3.50
2023-04-08T11:06:28.921Z,2.10
2023-04-08T11:11:36.267Z,2.80
2023-04-08T11:16:41.646Z,4.83
2023-04-08T11:21:45.131Z,5.37
2023-04-08T11:26:48.450Z,5.63
2023-04-08T11:31:53.135Z,5.50
2023-04-08T11:36:58.558Z,5.00
2023-04-08T11:42:01.901Z,3.83
2023-04-08T11:47:07.442Z,4.20
2023-04-08T11:52:10.801Z,4.40
2023-04-08T11:57:15.553Z,3.77
2023-04-08T12:02:20.447Z,4.47
2023-04-08T12:07:23.743Z,4.37
2023-04-08T12:12:27.101Z,4.27
2023-04-08T12:17:32.000Z,4.07
2023-04-08T12:22:35.561Z,4.27
2023-04-08T12:27:39.881Z,4.00
2023-04-08T12:32:46.131Z,4.07
2023-04-08T12:37:49.456Z,2.53
2023-04-08T12:42:53.167Z,2.70
2023-04-08T12:47:57.743Z,2.70
2023-04-08T12:53:01.072Z,2.87
2023-04-08T12:58:05.654Z,3.60
2023-04-08T13:03:10.312Z,3.60
2023-04-08T13:08:13.564Z,3.90
2023-04-08T13:13:16.889Z,3.50
2023-04-08T13:18:21.550Z,2.10
2023-04-08T13:23:24.746Z,2.00
2023-04-08T13:28:27.965Z,1.70
2023-04-08T13:33:32.603Z,2.07
2023-04-08T13:38:36.600Z,2.30
2023-04-08T13:43:39.894Z,4.40
2023-04-08T13:48:44.633Z,3.53
2023-04-08T13:53:48.154Z,3.80
2023-04-08T13:58:57.261Z,3.43
2023-04-08T14:04:02.438Z,4.37
2023-04-08T14:09:05.879Z,4.37
2023-04-08T14:14:09.128Z,4.07
2023-04-08T14:19:14.009Z,4.30
2023-04-08T14:24:17.481Z,3.87
2023-04-08T14:29:20.982Z,3.77
2023-04-08T14:34:25.885Z,5.53
2023-04-08T14:39:29.526Z,4.43
2023-04-08T14:44:32.786Z,4.77
2023-04-08T14:49:37.375Z,4.17
2023-04-08T14:54:41.318Z,4.17
2023-04-08T14:59:44.530Z,4.80
2023-04-08T15:04:49.119Z,5.73
2023-04-08T15:09:52.319Z,6.13
2023-04-08T15:14:55.567Z,5.87
2023-04-08T15:20:00.228Z,6.13
2023-04-08T15:25:05.134Z,6.43
2023-04-08T15:30:11.265Z,5.60
2023-04-08T15:35:16.944Z,6.10
2023-04-08T15:40:20.534Z,5.80
2023-04-08T15:45:23.744Z,5.73
2023-04-08T15:50:31.550Z,6.20
2023-04-08T15:55:39.210Z,6.73
2023-04-08T16:00:42.491Z,6.10
2023-04-08T16:05:47.065Z,6.90
2023-04-08T16:10:50.295Z,7.27
2023-04-08T16:15:53.601Z,7.50
2023-04-08T16:20:58.453Z,8.33
2023-04-08T16:26:01.906Z,8.47
2023-04-08T16:31:05.237Z,6.53
2023-04-08T16:36:09.982Z,9.47
2023-04-08T16:41:13.219Z,7.20
2023-04-08T16:46:18.777Z,8.40
2023-04-08T16:51:23.465Z,9.43
2023-04-08T16:56:27.218Z,8.20
2023-04-08T17:01:30.590Z,12.10
2023-04-08T17:06:36.322Z,11.27
2023-04-08T17:11:39.575Z,9.10
2023-04-08T17:16:42.883Z,6.97
2023-04-08T17:21:47.777Z,10.30
2023-04-08T17:26:51.022Z,10.00
2023-04-08T17:31:54.345Z,7.00
2023-04-08T17:36:59.020Z,6.40
2023-04-08T17:42:02.348Z,5.43
2023-04-08T17:47:05.655Z,5.70
2023-04-08T17:52:10.283Z,3.23
2023-04-08T17:57:14.329Z,4.07
2023-04-08T18:02:17.616Z,3.03
2023-04-08T18:07:22.323Z,6.50
2023-04-08T18:12:26.325Z,3.43
2023-04-08T18:17:29.676Z,2.40
2023-04-08T18:22:34.454Z,2.33
2023-04-08T18:27:37.735Z,2.60
2023-04-08T18:32:41.022Z,3.03
2023-04-08T18:37:45.889Z,3.20
2023-04-08T18:42:49.226Z,3.30
2023-04-08T18:47:52.557Z,2.70
2023-04-08T18:52:57.394Z,2.90
2023-04-08T18:58:00.682Z,2.90
2023-04-08T19:03:04.143Z,2.73
2023-04-08T19:08:09.049Z,3.47
2023-04-08T19:13:12.471Z,3.57
2023-04-08T19:18:15.984Z,4.13
2023-04-08T19:23:20.741Z,4.03
2023-04-08T19:28:24.056Z,3.97
2023-04-08T19:33:27.964Z,3.97
2023-04-08T19:38:32.729Z,4.10
2023-04-08T19:43:36.245Z,4.40
2023-04-08T19:48:39.619Z,4.80
2023-04-08T19:53:44.790Z,4.80
2023-04-08T19:58:48.370Z,4.30
2023-04-08T20:03:52.558Z,3.77
2023-04-08T20:09:05.492Z,3.20
2023-04-08T20:14:09.027Z,3.20
2023-04-08T20:19:12.375Z,3.90
2023-04-08T20:24:17.862Z,4.37
2023-04-08T20:29:21.195Z,3.30
2023-04-08T20:34:24.472Z,4.30
2023-04-08T20:39:31.193Z,4.07
2023-04-08T20:44:34.485Z,5.83
2023-04-08T20:49:41.124Z,6.03
2023-04-08T20:54:45.867Z,6.90
2023-04-08T20:59:49.212Z,6.83
2023-04-08T21:04:52.485Z,7.83
2023-04-08T21:09:57.184Z,7.80
2023-04-08T21:15:00.511Z,8.30
2023-04-08T21:20:04.512Z,8.53
2023-04-08T21:25:09.929Z,7.97
2023-04-08T21:30:13.498Z,8.07
2023-04-08T21:35:16.950Z,8.90
2023-04-08T21:40:21.620Z,8.90
2023-04-08T21:45:24.940Z,9.23
2023-04-08T21:50:28.241Z,9.53
2023-04-08T21:55:32.876Z,9.90
2023-04-08T22:00:36.184Z,9.73
2023-04-08T22:05:39.417Z,9.57
2023-04-08T22:10:44.169Z,10.17
2023-04-08T22:15:47.420Z,9.83
2023-04-08T22:20:50.724Z,9.37
2023-04-08T22:25:55.428Z,8.53
2023-04-08T22:31:09.501Z,9.53
2023-04-08T22:36:12.926Z,9.40
2023-04-08T22:41:22.082Z,8.43
2023-04-08T22:46:25.607Z,9.37
2023-04-08T22:51:28.883Z,9.63
2023-04-08T22:56:33.534Z,10.07
2023-04-08T23:01:37.635Z,10.30
2023-04-08T23:06:41.141Z,12.13
2023-04-08T23:11:45.761Z,15.47
2023-04-08T23:16:49.050Z,19.20
2023-04-08T23:21:52.385Z,17.40
2023-04-08T23:26:57.465Z,11.97
2023-04-08T23:32:00.750Z,13.23
2023-04-08T23:37:04.441Z,12.40
2023-04-08T23:42:09.085Z,13.20
2023-04-08T23:47:12.366Z,13.67
2023-04-08T23:52:15.807Z,13.90
2023-04-08T23:57:21.476Z,14.20
